Time;durP1;ratioP1;P1;durP2;ratioP2;P2;SDS_P1;SDS_P2;PMS_P1;PMS_P2;Temp;Humidity;BMP_temperature;BMP_pressure;BME280_temperature;BME280_humidity;BME280_pressure;Samples;Min_cycle;Max_cycle;Signal;HPM_P1;HPM_P2
2023/01/29 00:00:08;;;;;;;9.45;5.15;;;;;;;-1.86;93.30;98353.53;4958191;28;20049;-62
2023/01/29 00:02:38;;;;;;;7.93;4.28;;;;;;;-1.88;92.41;98353.66;4966529;28;20100;-63
2023/01/29 00:05:05;;;;;;;9.07;4.90;;;;;;;-1.92;92.11;98352.28;4957696;28;20462;-62
2023/01/29 00:07:52;;;;;;;7.85;4.53;;;;;;;-1.93;90.72;98352.44;4962332;28;20516;-63
2023/01/29 00:10:18;;;;;;;10.20;4.93;;;;;;;-1.87;90.76;98349.19;4958082;28;20047;-62
2023/01/29 00:12:45;;;;;;;7.38;4.32;;;;;;;-1.97;90.22;98341.28;4962627;28;20089;-62
2023/01/29 00:15:11;;;;;;;7.18;4.25;;;;;;;-1.97;89.80;98346.59;4956223;28;20113;-63
2023/01/29 00:17:38;;;;;;;10.25;4.97;;;;;;;-2.02;90.94;98347.06;4965153;28;20455;-62
2023/01/29 00:20:05;;;;;;;7.90;4.13;;;;;;;-2.02;90.61;98338.25;4961958;28;20051;-62
2023/01/29 00:22:31;;;;;;;7.90;4.18;;;;;;;-2.10;89.61;98333.69;4963757;28;20253;-62
2023/01/29 00:24:58;;;;;;;6.78;4.18;;;;;;;-2.02;89.64;98339.09;4962358;28;20071;-62
2023/01/29 00:27:24;;;;;;;7.65;4.22;;;;;;;-1.90;87.91;98345.03;4957062;28;20126;-62
2023/01/29 00:30:10;;;;;;;8.82;4.88;;;;;;;-1.84;87.70;98344.41;4960567;28;20086;-60
2023/01/29 00:32:36;;;;;;;7.95;4.72;;;;;;;-1.89;87.64;98338.72;4976638;28;20049;-59
2023/01/29 00:35:03;;;;;;;8.73;4.50;;;;;;;-2.04;89.09;98337.53;4957555;28;20030;-60
2023/01/29 00:37:29;;;;;;;8.05;4.85;;;;;;;-2.07;88.74;98345.81;4963893;28;20751;-61
2023/01/29 00:39:56;;;;;;;9.40;5.75;;;;;;;-2.04;90.52;98341.03;4961184;28;20049;-62
2023/01/29 00:45:10;;;;;;;6.75;4.30;;;;;;;-2.12;89.99;98343.59;4962331;28;20039;-61
2023/01/29 00:47:37;;;;;;;8.35;4.40;;;;;;;-2.11;90.74;98339.94;4961145;28;20682;-61
2023/01/29 00:50:07;;;;;;;8.13;5.28;;;;;;;-2.06;91.09;98345.66;4960245;28;20039;-61
2023/01/29 00:52:35;;;;;;;7.82;4.13;;;;;;;-1.93;90.34;98353.28;4961132;28;20767;-62
2023/01/29 00:55:04;;;;;;;6.97;4.05;;;;;;;-1.99;90.73;98344.09;4965618;28;20038;-62
2023/01/29 00:57:32;;;;;;;7.97;4.50;;;;;;;-2.03;90.68;98344.53;4960601;28;20593;-62
2023/01/29 00:59:59;;;;;;;7.57;4.30;;;;;;;-2.01;90.29;98345.22;4957644;28;20133;-62
2023/01/29 01:05:16;;;;;;;6.97;4.30;;;;;;;-2.02;89.04;98344.41;4975930;28;20063;-62
2023/01/29 01:07:52;;;;;;;7.30;4.13;;;;;;;-2.08;89.13;98342.31;4957136;28;20683;-62
2023/01/29 01:10:25;;;;;;;8.55;4.50;;;;;;;-2.07;91.16;98346.63;4964274;28;20072;-62
2023/01/29 01:13:00;;;;;;;6.97;4.20;;;;;;;-2.09;91.96;98338.81;4960205;28;20109;-63
2023/01/29 01:15:30;;;;;;;7.07;4.68;;;;;;;-2.00;91.32;98342.41;4961593;28;20507;-62
2023/01/29 01:17:59;;;;;;;8.32;4.18;;;;;;;-1.95;88.64;98344.63;4958764;28;20495;-63
2023/01/29 01:20:29;;;;;;;8.10;4.55;;;;;;;-1.96;88.59;98341.13;4966470;28;20039;-63
2023/01/29 01:22:56;;;;;;;7.70;4.28;;;;;;;-2.05;90.12;98331.41;4952114;28;20070;-62
2023/01/29 01:25:24;;;;;;;7.20;3.97;;;;;;;-2.07;89.29;98325.41;4959334;28;20573;-62
2023/01/29 01:27:52;;;;;;;7.45;4.38;;;;;;;-2.09;90.82;98333.50;4975591;28;20046;-63
2023/01/29 01:30:19;;;;;;;6.97;4.32;;;;;;;-2.11;90.76;98332.84;4967805;28;20126;-62
2023/01/29 01:32:45;;;;;;;11.10;4.57;;;;;;;-2.16;90.10;98340.41;4962286;28;20130;-62
2023/01/29 01:35:15;;;;;;;8.10;4.60;;;;;;;-2.06;90.33;98344.81;4962881;28;20119;-62
2023/01/29 01:37:41;;;;;;;6.55;4.28;;;;;;;-2.06;90.19;98348.31;4959022;28;20125;-61
2023/01/29 01:40:16;;;;;;;7.82;4.60;;;;;;;-2.05;88.94;98344.69;4957403;28;20669;-62
2023/01/29 01:42:47;;;;;;;8.07;3.95;;;;;;;-2.01;88.98;98347.88;4961509;28;20035;-62
2023/01/29 01:45:19;;;;;;;5.93;4.40;;;;;;;-2.01;88.03;98345.22;4962138;28;20070;-61
2023/01/29 01:47:50;;;;;;;7.13;4.15;;;;;;;-1.91;86.57;98343.38;4964835;28;20056;-62
2023/01/29 01:50:23;;;;;;;7.53;4.20;;;;;;;-1.91;86.48;98338.06;4957345;28;20098;-61
2023/01/29 01:52:54;;;;;;;7.82;4.05;;;;;;;-1.91;86.38;98335.41;4970127;28;20098;-62
2023/01/29 01:55:24;;;;;;;8.75;4.72;;;;;;;-2.01;87.20;98340.75;4968416;28;20090;-62
2023/01/29 01:57:58;;;;;;;8.02;4.00;;;;;;;-2.10;87.63;98331.03;4956447;28;20045;-62
2023/01/29 02:00:25;;;;;;;6.45;4.15;;;;;;;-2.23;89.27;98328.69;4970066;28;20142;-61
2023/01/29 02:11:29;;;;;;;8.50;4.53;;;;;;;-2.20;86.87;98340.81;4957370;28;20051;-62
2023/01/29 02:13:56;;;;;;;9.85;4.80;;;;;;;-2.16;88.23;98343.06;4960124;28;20039;-62
2023/01/29 02:16:24;;;;;;;7.68;4.05;;;;;;;-2.12;88.31;98343.59;4957752;28;20062;-62
2023/01/29 02:18:51;;;;;;;6.72;4.47;;;;;;;-2.08;87.49;98339.66;4962894;28;20046;-62
2023/01/29 02:21:49;;;;;;;7.78;4.35;;;;;;;-2.09;87.46;98330.03;4953112;28;20039;-62
2023/01/29 02:24:58;;;;;;;7.22;4.00;;;;;;;-2.18;88.49;98338.88;4961442;28;20046;-62
2023/01/29 02:27:34;;;;;;;7.90;4.63;;;;;;;-2.29;88.95;98345.22;4958750;28;20040;-62
2023/01/29 02:30:09;;;;;;;6.57;4.10;;;;;;;-2.26;88.22;98340.44;4957315;28;20035;-62
2023/01/29 02:32:57;;;;;;;6.60;4.07;;;;;;;-2.20;89.85;98341.66;4953841;28;20038;-62
2023/01/29 02:35:41;;;;;;;8.00;4.03;;;;;;;-2.20;90.46;98339.03;4972176;28;20097;-62
2023/01/29 02:38:46;;;;;;;8.07;4.47;;;;;;;-2.17;91.68;98338.75;4955797;28;20049;-61
2023/01/29 02:41:21;;;;;;;8.60;5.00;;;;;;;-2.16;90.71;98336.91;4950993;28;20718;-60
2023/01/29 02:44:01;;;;;;;7.22;4.13;;;;;;;-2.21;90.41;98334.69;4958123;28;20046;-62
2023/01/29 02:46:40;;;;;;;7.70;4.35;;;;;;;-2.25;90.63;98331.47;4952043;28;20055;-61
2023/01/29 02:49:25;;;;;;;8.23;4.93;;;;;;;-2.27;90.98;98330.81;4957451;28;20039;-62
2023/01/29 02:52:11;;;;;;;8.05;4.22;;;;;;;-2.33;90.15;98322.59;4955045;28;20553;-61
2023/01/29 02:55:01;;;;;;;9.82;4.38;;;;;;;-2.35;91.16;98330.69;4962741;28;20089;-62
2023/01/29 02:57:34;;;;;;;8.05;4.95;;;;;;;-2.30;91.04;98327.59;4921655;28;20075;-62
2023/01/29 03:00:08;;;;;;;8.32;4.88;;;;;;;-2.17;93.30;98324.63;4944231;28;20051;-61
2023/01/29 03:02:54;;;;;;;9.23;5.00;;;;;;;-2.26;91.37;98328.97;4956908;28;20038;-61
2023/01/29 03:05:29;;;;;;;7.63;4.78;;;;;;;-2.14;94.26;98332.31;4977514;28;20117;-63
2023/01/29 03:08:03;;;;;;;9.85;4.65;;;;;;;-2.10;92.83;98331.84;4956105;28;20110;-61
2023/01/29 03:10:46;;;;;;;7.95;4.63;;;;;;;-2.09;91.14;98335.34;4950378;28;20046;-62
2023/01/29 03:13:20;;;;;;;9.27;5.10;;;;;;;-2.11;89.62;98326.69;4953538;28;20043;-62
2023/01/29 03:16:00;;;;;;;8.55;4.97;;;;;;;-2.18;89.91;98329.09;4962559;28;20047;-63
2023/01/29 03:18:47;;;;;;;7.20;4.57;;;;;;;-2.24;91.19;98332.34;4969707;28;20149;-62
2023/01/29 03:32:50;;;;;;;9.03;4.70;;;;;;;-2.12;90.12;98331.16;4963732;28;20046;-61
2023/01/29 03:35:32;;;;;;;7.43;4.65;;;;;;;-2.18;91.26;98325.63;4968230;28;20288;-62
2023/01/29 03:37:59;;;;;;;8.63;4.90;;;;;;;-2.25;93.08;98328.84;4980136;28;20054;-62
2023/01/29 03:40:31;;;;;;;8.35;4.60;;;;;;;-2.12;95.74;98325.00;4960516;28;20126;-62
2023/01/29 03:43:31;;;;;;;7.05;4.55;;;;;;;-2.28;95.29;98323.81;4964316;28;20507;-62
2023/01/29 03:46:20;;;;;;;7.63;4.60;;;;;;;-2.58;93.91;98331.03;4960889;28;20038;-62
2023/01/29 03:48:52;;;;;;;7.45;4.90;;;;;;;-2.45;93.40;98325.41;4960923;28;20069;-62
2023/01/29 03:51:32;;;;;;;;;;;;;;;-2.30;92.88;98331.09;4959510;28;20737;-62
2023/01/29 03:54:06;;;;;;;7.72;4.60;;;;;;;-2.18;90.74;98325.63;4977277;28;20402;-63
2023/01/29 03:56:44;;;;;;;7.03;4.30;;;;;;;-2.18;91.53;98322.97;4966139;28;20522;-62
2023/01/29 03:59:21;;;;;;;8.82;4.85;;;;;;;-2.31;92.38;98329.44;4983012;28;20502;-62
2023/01/29 04:02:10;;;;;;;8.82;4.25;;;;;;;-2.32;94.71;98322.44;4974225;28;20130;-62
2023/01/29 04:04:40;;;;;;;8.70;4.78;;;;;;;-2.54;94.93;98321.81;4962671;28;20070;-62
2023/01/29 04:07:17;;;;;;;7.10;4.57;;;;;;;-2.69;96.27;98328.56;4960858;28;20134;-62
2023/01/29 04:09:49;;;;;;;9.07;5.13;;;;;;;-2.85;98.26;98329.16;4963142;28;20051;-63
2023/01/29 04:12:23;;;;;;;8.68;5.18;;;;;;;-2.80;97.98;98325.09;4957471;28;20603;-63
2023/01/29 04:14:51;;;;;;;9.25;4.60;;;;;;;-2.93;97.01;98330.69;4966614;28;20031;-62
2023/01/29 04:17:24;;;;;;;8.85;5.22;;;;;;;-2.85;98.23;98327.34;4963106;28;20462;-62
2023/01/29 04:20:14;;;;;;;9.77;5.38;;;;;;;-2.78;97.85;98331.09;4962109;28;20109;-62
2023/01/29 04:22:46;;;;;;;8.75;5.43;;;;;;;-2.45;95.93;98324.56;4964772;28;20142;-62
2023/01/29 04:25:16;;;;;;;9.80;5.07;;;;;;;-2.40;94.23;98331.13;4964412;28;20130;-62
2023/01/29 04:28:10;;;;;;;10.18;4.65;;;;;;;-2.65;96.31;98333.41;4956153;28;20584;-62
2023/01/29 04:30:49;;;;;;;8.10;4.88;;;;;;;-2.66;97.70;98341.53;4979246;28;20050;-61
2023/01/29 04:33:31;;;;;;;7.60;5.10;;;;;;;-2.58;97.90;98331.03;4976436;28;20566;-61
2023/01/29 04:36:08;;;;;;;8.02;4.43;;;;;;;-2.62;97.13;98335.78;4957743;28;20556;-62
2023/01/29 04:38:50;;;;;;;9.10;4.57;;;;;;;-2.52;96.84;98330.47;4965637;28;20043;-61
2023/01/29 04:41:29;;;;;;;10.77;4.57;;;;;;;-2.41;95.02;98320.66;4962111;28;20070;-60
2023/01/29 04:44:27;;;;;;;9.23;5.07;;;;;;;-2.41;94.52;98321.50;4962212;28;20130;-62
2023/01/29 04:47:12;;;;;;;10.35;5.75;;;;;;;-2.35;93.71;98330.69;4956024;28;20043;-61
2023/01/29 04:49:51;;;;;;;8.52;4.63;;;;;;;-2.30;93.36;98330.25;4966098;28;20049;-62
2023/01/29 04:52:32;;;;;;;8.75;4.85;;;;;;;-2.29;93.39;98326.63;4954653;28;20094;-61
2023/01/29 04:55:23;;;;;;;9.77;5.07;;;;;;;-2.32;94.77;98330.38;4959850;28;20539;-61
2023/01/29 04:57:59;;;;;;;10.18;5.45;;;;;;;-2.29;94.94;98323.97;4959673;28;20066;-60
2023/01/29 05:00:31;;;;;;;10.20;5.78;;;;;;;-2.33;95.26;98327.91;4956384;28;20098;-62
2023/01/29 05:03:00;;;;;;;9.38;5.03;;;;;;;-2.27;94.71;98322.00;4959205;28;20101;-62
2023/01/29 05:05:27;;;;;;;11.15;5.97;;;;;;;-2.20;93.91;98327.56;4956641;28;20422;-62
2023/01/29 05:07:56;;;;;;;15.23;13.38;;;;;;;-2.28;93.22;98318.50;4962109;28;20103;-62
2023/01/29 05:10:24;;;;;;;8.45;5.60;;;;;;;-2.27;92.92;98314.03;4966307;28;20654;-62
2023/01/29 05:12:57;;;;;;;10.48;8.07;;;;;;;-2.28;94.33;98318.50;4957598;28;20039;-61
2023/01/29 05:15:32;;;;;;;8.85;5.53;;;;;;;-2.20;94.70;98322.25;4960555;28;20077;-62
2023/01/29 05:18:01;;;;;;;9.73;5.38;;;;;;;-2.34;95.16;98319.09;4963934;28;20106;-61
2023/01/29 05:20:33;;;;;;;10.25;5.43;;;;;;;-2.43;97.22;98328.75;4961704;28;20058;-62
2023/01/29 05:22:59;;;;;;;8.02;4.53;;;;;;;-2.42;96.56;98329.59;4964161;28;20047;-62
2023/01/29 05:25:29;;;;;;;10.45;5.80;;;;;;;-2.40;95.57;98339.09;4960294;28;20398;-62
2023/01/29 05:30:50;;;;;;;8.98;4.93;;;;;;;-2.28;94.88;98347.69;4959574;28;20042;-61
2023/01/29 05:33:28;;;;;;;7.80;4.88;;;;;;;-2.38;93.72;98346.91;4962979;28;20122;-61
2023/01/29 05:35:57;;;;;;;9.23;4.25;;;;;;;-2.39;93.65;98335.44;4956971;28;20606;-61
2023/01/29 05:38:24;;;;;;;8.82;5.10;;;;;;;-2.28;92.96;98330.94;4959299;28;20068;-62
2023/01/29 05:40:51;;;;;;;8.35;4.38;;;;;;;-2.27;92.68;98328.16;4961174;28;20047;-61
2023/01/29 05:43:19;;;;;;;8.98;5.18;;;;;;;-2.38;90.92;98320.38;4962735;28;20035;-62
2023/01/29 05:45:53;;;;;;;7.65;4.22;;;;;;;-2.45;92.20;98309.50;4952507;28;20043;-62
2023/01/29 05:48:20;;;;;;;7.80;4.80;;;;;;;-2.41;92.52;98288.81;4957644;28;20109;-62
2023/01/29 05:50:46;;;;;;;9.05;4.38;;;;;;;-2.52;93.08;98285.38;4954273;28;20051;-62
2023/01/29 05:53:13;;;;;;;9.15;4.18;;;;;;;-2.55;93.55;98284.84;4959909;28;20046;-61
2023/01/29 05:55:44;;;;;;;9.70;4.90;;;;;;;-2.46;94.62;98296.38;4961018;28;20646;-62
2023/01/29 05:58:11;;;;;;;9.00;4.32;;;;;;;-2.52;94.48;98296.00;4961644;28;20035;-62
2023/01/29 06:00:38;;;;;;;10.85;5.03;;;;;;;-2.45;93.95;98306.00;4962197;28;20047;-62
2023/01/29 06:03:05;;;;;;;8.55;4.90;;;;;;;-2.46;94.22;98312.31;4959110;28;20065;-61
2023/01/29 06:05:31;;;;;;;7.25;4.25;;;;;;;-2.43;93.22;98304.88;4961489;28;20653;-60
2023/01/29 06:07:58;;;;;;;9.45;4.70;;;;;;;-2.36;94.51;98295.38;4958715;28;20762;-61
2023/01/29 06:10:24;;;;;;;7.85;4.55;;;;;;;-2.43;93.64;98304.06;4961827;28;20126;-62
2023/01/29 06:12:51;;;;;;;11.07;4.20;;;;;;;-2.43;92.20;98306.72;4958369;28;20094;-62
2023/01/29 06:15:18;;;;;;;7.60;4.20;;;;;;;-2.45;92.28;98303.34;4953716;28;20031;-62
2023/01/29 06:17:45;;;;;;;7.65;4.38;;;;;;;-2.44;93.09;98305.06;4960953;28;20126;-62
2023/01/29 06:20:12;;;;;;;9.57;5.15;;;;;;;-2.47;93.42;98306.16;4956023;28;20039;-62
2023/01/29 06:22:39;;;;;;;8.75;4.80;;;;;;;-2.48;94.28;98309.78;4954370;28;20051;-62
2023/01/29 06:25:06;;;;;;;8.90;5.07;;;;;;;-2.56;94.72;98312.31;4955914;28;20055;-61
2023/01/29 06:27:32;;;;;;;9.18;4.57;;;;;;;-2.56;94.87;98318.47;4962982;28;20043;-61
2023/01/29 06:29:59;;;;;;;7.78;5.07;;;;;;;-2.53;96.38;98323.50;4958963;28;20042;-62
2023/01/29 06:32:26;;;;;;;8.35;5.07;;;;;;;-2.59;94.93;98317.94;4957537;28;20116;-62
2023/01/29 06:34:53;;;;;;;12.65;4.55;;;;;;;-2.53;94.68;98327.97;4957120;28;20422;-62
2023/01/29 06:37:19;;;;;;;10.52;4.75;;;;;;;-2.60;92.87;98317.09;4962170;28;20085;-62
2023/01/29 06:39:46;;;;;;;8.25;4.40;;;;;;;-2.56;95.64;98325.59;4955856;28;20562;-62
2023/01/29 06:42:12;;;;;;;9.18;4.43;;;;;;;-2.43;95.41;98314.69;4962113;28;20609;-61
2023/01/29 06:44:38;;;;;;;7.57;4.18;;;;;;;-2.45;93.35;98311.31;4956014;28;20506;-62
2023/01/29 06:47:05;;;;;;;8.93;5.38;;;;;;;-2.43;94.36;98312.03;4957477;28;20066;-62
2023/01/29 06:49:31;;;;;;;8.10;4.63;;;;;;;-2.56;94.40;98310.53;4956108;28;20125;-61
2023/01/29 06:51:58;;;;;;;8.27;5.50;;;;;;;-2.56;94.69;98315.81;4955195;28;20440;-62
2023/01/29 06:54:24;;;;;;;8.07;4.80;;;;;;;-2.57;95.29;98323.91;4954259;28;20054;-61
2023/01/29 06:56:51;;;;;;;8.65;5.30;;;;;;;-2.62;94.71;98329.66;4949603;28;20047;-62
2023/01/29 06:59:17;;;;;;;8.82;4.75;;;;;;;-2.54;94.71;98326.28;4948658;28;20043;-62
2023/01/29 07:01:44;;;;;;;7.30;4.38;;;;;;;-2.48;93.64;98331.00;4955423;28;20534;-62
2023/01/29 07:04:10;;;;;;;11.23;5.65;;;;;;;-2.47;95.37;98322.06;4954592;28;20049;-62
2023/01/29 07:06:37;;;;;;;8.40;4.70;;;;;;;-2.42;94.78;98326.94;4955116;28;20130;-62
2023/01/29 07:09:04;;;;;;;8.27;5.03;;;;;;;-2.60;95.43;98322.41;4952598;28;20046;-62
2023/01/29 07:11:31;;;;;;;8.65;4.68;;;;;;;-2.61;95.31;98321.56;4950212;28;20049;-61
2023/01/29 07:13:57;;;;;;;9.73;5.30;;;;;;;-2.52;94.53;98308.41;4960249;28;20094;-61
2023/01/29 07:16:25;;;;;;;9.27;5.60;;;;;;;-2.55;95.18;98317.50;4960910;28;20140;-61
2023/01/29 07:18:52;;;;;;;10.07;5.22;;;;;;;-2.54;97.52;98319.16;4960152;28;20047;-61
2023/01/29 07:21:18;;;;;;;9.90;4.97;;;;;;;-2.71;97.07;98320.75;4956205;28;20043;-61
2023/01/29 07:23:45;;;;;;;9.00;4.90;;;;;;;-2.71;97.22;98325.22;4956651;28;20113;-61
2023/01/29 07:26:11;;;;;;;8.85;4.68;;;;;;;-2.57;96.09;98332.72;4954668;28;20031;-61
2023/01/29 07:28:38;;;;;;;9.05;5.60;;;;;;;-2.46;96.00;98342.31;4962843;28;20059;-62
2023/01/29 07:31:06;;;;;;;10.23;5.95;;;;;;;-2.38;95.48;98347.75;4958532;28;20057;-60
2023/01/29 07:33:33;;;;;;;8.90;5.50;;;;;;;-2.33;95.81;98349.94;4957644;28;20109;-61
2023/01/29 07:36:00;;;;;;;9.52;5.78;;;;;;;-2.29;95.64;98350.50;4958867;28;20050;-61
2023/01/29 07:38:26;;;;;;;8.05;4.60;;;;;;;-2.29;95.75;98348.69;4957406;28;20039;-62
2023/01/29 07:40:53;;;;;;;7.28;4.47;;;;;;;-2.23;93.94;98352.56;4956354;28;20074;-62
2023/01/29 07:43:19;;;;;;;9.63;5.35;;;;;;;-2.23;93.82;98349.91;4953996;28;20106;-61
2023/01/29 07:45:46;;;;;;;9.57;5.45;;;;;;;-2.23;93.21;98344.63;4957010;28;20118;-62
2023/01/29 07:48:13;;;;;;;12.98;5.82;;;;;;;-2.29;93.74;98351.31;4958740;28;20043;-55
2023/01/29 07:50:40;;;;;;;10.40;4.80;;;;;;;-2.46;94.75;98360.88;4960556;28;20403;-56
2023/01/29 07:53:06;;;;;;;13.93;9.85;;;;;;;-2.57;96.07;98359.25;4958922;28;20105;-55
2023/01/29 07:55:33;;;;;;;10.68;6.45;;;;;;;-2.62;96.83;98364.97;4958499;28;20449;-52
2023/01/29 07:58:01;;;;;;;9.88;5.03;;;;;;;-2.48;96.13;98365.50;4954486;28;20050;-61
2023/01/29 08:00:30;;;;;;;10.18;5.47;;;;;;;-2.31;95.30;98365.72;4957296;28;20502;-62
2023/01/29 08:03:23;;;;;;;7.82;4.80;;;;;;;-2.26;93.44;98361.66;4954209;28;20401;-61
2023/01/29 08:05:49;;;;;;;10.82;5.50;;;;;;;-2.19;92.45;98358.41;4954612;28;20534;-61
2023/01/29 08:08:16;;;;;;;14.00;8.07;;;;;;;-2.10;92.83;98358.38;4965094;28;20548;-62
2023/01/29 08:10:42;;;;;;;11.98;7.63;;;;;;;-1.89;94.08;98370.59;4955322;28;20055;-62
2023/01/29 08:13:09;;;;;;;8.65;5.57;;;;;;;-1.88;92.77;98371.44;4953781;28;20455;-62
2023/01/29 08:15:35;;;;;;;10.02;5.13;;;;;;;-1.89;90.92;98375.03;4959248;28;20106;-62
2023/01/29 08:18:22;;;;;;;9.93;5.43;;;;;;;-1.91;92.35;98380.53;4959862;28;20043;-62
2023/01/29 08:20:48;;;;;;;9.23;5.43;;;;;;;-1.94;92.97;98379.97;4953335;28;20039;-62
2023/01/29 08:23:15;;;;;;;10.02;5.28;;;;;;;-2.01;93.99;98380.56;4962497;28;20118;-62
2023/01/29 08:25:42;;;;;;;11.00;6.03;;;;;;;-2.11;93.04;98385.91;4953227;28;20046;-62
2023/01/29 08:28:10;;;;;;;15.18;8.20;;;;;;;-2.25;93.68;98378.44;4955045;28;20054;-61
2023/01/29 08:30:37;;;;;;;16.17;10.32;;;;;;;-2.36;94.37;98382.91;4957869;28;20125;-62
2023/01/29 08:33:03;;;;;;;9.52;5.47;;;;;;;-2.39;94.12;98379.72;4954160;28;20542;-62
2023/01/29 08:35:30;;;;;;;13.25;7.13;;;;;;;-2.40;94.21;98378.06;4963321;28;20050;-62
2023/01/29 08:37:59;;;;;;;13.63;6.88;;;;;;;-2.16;93.75;98385.50;4952856;28;20043;-62
2023/01/29 08:40:28;;;;;;;9.45;6.13;;;;;;;-2.08;94.14;98392.75;4962340;28;20078;-63
2023/01/29 08:42:59;;;;;;;10.23;5.60;;;;;;;-1.97;93.57;98392.56;4953399;28;20053;-62
2023/01/29 08:45:29;;;;;;;10.13;5.95;;;;;;;-1.96;91.17;98386.25;4959526;28;20034;-61
2023/01/29 08:47:55;;;;;;;11.18;6.22;;;;;;;-2.02;91.98;98389.53;4962153;28;20046;-62
2023/01/29 08:50:22;;;;;;;10.63;6.22;;;;;;;-2.30;92.66;98392.13;4957689;28;20043;-62
2023/01/29 08:52:48;;;;;;;10.35;6.88;;;;;;;-2.11;93.01;98377.94;4956663;28;20606;-61
2023/01/29 08:55:15;;;;;;;8.15;5.35;;;;;;;-1.97;90.77;98386.41;4957979;28;20518;-62
2023/01/29 08:57:42;;;;;;;10.60;6.05;;;;;;;-2.02;89.04;98388.66;4953330;28;20059;-61
2023/01/29 09:00:09;;;;;;;9.23;5.07;;;;;;;-1.85;89.69;98379.94;4955314;28;20066;-61
2023/01/29 09:02:36;;;;;;;8.40;4.82;;;;;;;-1.78;87.10;98384.63;4959153;28;20046;-62
2023/01/29 09:05:03;;;;;;;8.25;4.82;;;;;;;-1.72;82.99;98387.56;4958411;28;20125;-62
2023/01/29 09:07:29;;;;;;;9.30;4.70;;;;;;;-1.58;84.19;98385.38;4959607;28;20057;-61
2023/01/29 09:09:56;;;;;;;7.40;4.30;;;;;;;-1.59;82.54;98395.16;4956657;28;20125;-62
2023/01/29 09:12:22;;;;;;;10.27;5.65;;;;;;;-1.62;84.45;98399.94;4958116;28;20043;-59
2023/01/29 09:14:49;;;;;;;7.82;5.00;;;;;;;-1.54;80.54;98401.84;4959975;28;20058;-62
2023/01/29 09:17:15;;;;;;;8.55;4.50;;;;;;;-1.49;80.94;98399.59;4958417;28;20047;-62
2023/01/29 09:19:42;;;;;;;7.38;4.28;;;;;;;-1.51;80.63;98397.06;4961365;28;20054;-61
2023/01/29 09:22:09;;;;;;;10.63;4.82;;;;;;;-1.39;79.66;98397.72;4956884;28;20042;-62
2023/01/29 09:24:37;;;;;;;7.57;4.50;;;;;;;-1.39;82.44;98396.88;4957777;28;20049;-62
2023/01/29 09:27:04;;;;;;;9.43;4.68;;;;;;;-1.37;80.49;98402.88;4951117;28;20619;-62
2023/01/29 09:29:31;;;;;;;8.40;5.03;;;;;;;-1.30;79.74;98398.63;4950797;28;20047;-62
2023/01/29 09:32:02;;;;;;;8.52;4.93;;;;;;;-1.11;79.28;98399.50;4949779;28;20077;-62
2023/01/29 09:34:28;;;;;;;8.20;4.88;;;;;;;-1.06;78.99;98408.66;4961096;28;20130;-62
2023/01/29 09:36:55;;;;;;;11.88;5.28;;;;;;;-1.12;79.05;98403.13;4964440;28;20610;-62
2023/01/29 09:39:21;;;;;;;8.10;4.90;;;;;;;-1.00;78.64;98393.94;4966645;28;20047;-62
2023/01/29 09:42:00;;;;;;;7.22;4.53;;;;;;;-0.83;77.49;98383.44;4963919;28;20077;-62
2023/01/29 09:44:53;;;;;;;8.25;5.03;;;;;;;-0.76;76.50;98373.88;4962736;28;20070;-62
2023/01/29 09:47:23;;;;;;;9.00;5.80;;;;;;;-1.09;79.46;98366.44;4957687;28;20035;-62
2023/01/29 09:49:57;;;;;;;10.38;6.18;;;;;;;-1.48;81.69;98356.09;4963174;28;20117;-61
2023/01/29 09:52:29;;;;;;;9.15;5.75;;;;;;;-1.35;81.37;98355.72;4954743;28;20046;-60
2023/01/29 09:55:05;;;;;;;9.57;5.57;;;;;;;-1.38;81.64;98358.69;4958131;28;20043;-61
2023/01/29 09:57:55;;;;;;;10.80;5.63;;;;;;;-1.36;81.62;98349.56;4956355;28;20039;-59
2023/01/29 10:00:39;;;;;;;8.75;5.72;;;;;;;-1.13;79.98;98335.00;4958946;28;20071;-62
2023/01/29 10:03:30;;;;;;;8.45;5.40;;;;;;;-0.87;79.28;98331.56;4961293;28;20097;-61
2023/01/29 10:06:15;;;;;;;8.32;5.60;;;;;;;-0.95;80.61;98327.00;4960557;28;20047;-61
2023/01/29 10:09:14;;;;;;;9.35;5.78;;;;;;;-0.74;80.47;98326.66;4963360;28;20058;-62
2023/01/29 10:11:56;;;;;;;8.93;5.57;;;;;;;-0.47;78.65;98324.00;4956571;28;20163;-62
2023/01/29 10:14:42;;;;;;;11.48;6.03;;;;;;;-0.37;79.65;98330.03;4956066;28;20102;-62
2023/01/29 10:18:00;;;;;;;9.50;5.38;;;;;;;-0.20;78.17;98336.31;4956998;28;20042;-62
2023/01/29 10:20:48;;;;;;;10.60;6.55;;;;;;;-0.36;77.12;98336.22;4952816;28;20127;-62
2023/01/29 10:23:40;;;;;;;12.45;6.68;;;;;;;-0.53;78.38;98336.97;4956373;28;20126;-61
2023/01/29 10:26:11;;;;;;;9.95;5.80;;;;;;;-0.65;79.05;98332.88;4954585;28;20043;-61
2023/01/29 10:28:45;;;;;;;9.48;5.53;;;;;;;-0.49;77.11;98342.78;4958208;28;20073;-62
2023/01/29 10:31:17;;;;;;;11.27;6.75;;;;;;;-0.70;78.45;98343.16;4958440;28;20066;-62
2023/01/29 10:33:49;;;;;;;10.93;6.43;;;;;;;-0.98;80.76;98338.81;4960143;28;20125;-62
2023/01/29 10:36:35;;;;;;;10.88;6.65;;;;;;;-0.86;80.49;98347.34;4959064;28;20043;-61
2023/01/29 10:39:01;;;;;;;10.00;6.57;;;;;;;-0.76;79.24;98341.09;4953799;28;20134;-62
2023/01/29 10:41:39;;;;;;;11.85;6.75;;;;;;;-0.45;77.57;98338.81;4961510;28;20074;-62
2023/01/29 10:44:24;;;;;;;10.60;6.57;;;;;;;-0.37;78.73;98326.56;4954567;28;20043;-62
2023/01/29 10:47:22;;;;;;;13.75;6.22;;;;;;;-0.29;77.41;98339.91;4956464;28;20130;-62
2023/01/29 10:50:01;;;;;;;11.15;7.07;;;;;;;-0.33;77.85;98342.03;4952755;28;20047;-61
2023/01/29 10:52:49;;;;;;;9.68;6.07;;;;;;;-0.15;76.08;98346.47;4956741;28;20149;-62
2023/01/29 10:55:27;;;;;;;9.85;6.70;;;;;;;-0.14;75.45;98348.97;4931237;28;20045;-63
2023/01/29 10:58:35;;;;;;;10.27;5.53;;;;;;;-0.27;76.75;98348.56;4958834;28;20071;-62
2023/01/29 11:01:01;;;;;;;10.65;6.00;;;;;;;-0.05;77.11;98339.19;4954636;28;20043;-63
2023/01/29 11:03:32;;;;;;;10.20;5.60;;;;;;;-0.06;75.02;98334.03;4945605;28;20593;-62
2023/01/29 11:06:20;;;;;;;9.50;6.53;;;;;;;0.07;74.52;98339.75;4925792;28;20058;-62
2023/01/29 11:08:46;;;;;;;9.38;6.18;;;;;;;-0.08;74.88;98347.50;4962777;28;20215;-61
2023/01/29 11:11:16;;;;;;;10.23;6.00;;;;;;;-0.42;77.09;98338.53;4956088;28;21912;-61
2023/01/29 11:13:56;;;;;;;11.48;7.28;;;;;;;-0.38;77.84;98332.88;4959221;28;20074;-61
2023/01/29 11:16:23;;;;;;;9.30;5.60;;;;;;;-0.43;76.14;98328.88;4953746;28;20114;-61
2023/01/29 11:18:53;;;;;;;11.15;5.85;;;;;;;-0.14;77.94;98330.34;4953105;28;20117;-61
2023/01/29 11:21:20;;;;;;;10.95;6.63;;;;;;;-0.45;78.00;98322.84;4959040;28;20074;-61
2023/01/29 11:23:46;;;;;;;13.90;6.75;;;;;;;-0.24;76.94;98311.00;4954396;28;20098;-61
2023/01/29 11:26:19;;;;;;;10.45;5.57;;;;;;;-0.15;77.80;98307.38;4958947;28;21718;-61
2023/01/29 11:28:48;;;;;;;11.75;6.68;;;;;;;-0.37;77.54;98300.78;4959883;28;20050;-60
2023/01/29 11:31:21;;;;;;;12.00;6.60;;;;;;;-0.31;77.92;98288.66;4959250;28;20102;-61
2023/01/29 11:33:51;;;;;;;10.93;6.50;;;;;;;-0.11;76.28;98294.56;4963615;28;20165;-61
2023/01/29 11:36:26;;;;;;;10.43;6.57;;;;;;;-0.27;77.45;98290.00;4950282;28;20039;-61
2023/01/29 11:39:07;;;;;;;13.38;7.10;;;;;;;-0.35;77.55;98300.63;4956610;28;20049;-60
2023/01/29 11:42:03;;;;;;;10.45;6.80;;;;;;;-0.40;78.47;98298.44;4957619;28;20082;-61
2023/01/29 11:44:40;;;;;;;12.35;6.75;;;;;;;-0.31;78.20;98288.66;4956843;28;20054;-62
2023/01/29 11:47:19;;;;;;;15.45;6.95;;;;;;;-0.17;78.35;98287.22;4957288;28;20043;-61
2023/01/29 11:49:58;;;;;;;11.60;6.82;;;;;;;-0.33;77.04;98286.16;4958312;28;20071;-62
2023/01/29 11:52:33;;;;;;;11.38;6.78;;;;;;;-0.40;78.57;98285.97;4957478;28;20766;-61
2023/01/29 11:55:04;;;;;;;11.82;7.30;;;;;;;-0.34;78.39;98281.84;4960343;28;20035;-62
2023/01/29 11:57:41;;;;;;;11.40;6.80;;;;;;;-0.23;78.01;98278.06;4960157;28;20549;-61
2023/01/29 12:00:17;;;;;;;13.20;7.65;;;;;;;-0.16;78.86;98275.59;4958930;28;20097;-62
2023/01/29 12:02:52;;;;;;;14.70;6.95;;;;;;;0.09;76.46;98268.53;4958374;28;20043;-61
2023/01/29 12:05:22;;;;;;;12.52;6.65;;;;;;;0.16;76.30;98262.53;4964224;28;20078;-60
2023/01/29 12:07:52;;;;;;;11.80;7.30;;;;;;;-0.12;77.04;98249.50;4959827;28;20067;-61
2023/01/29 12:10:39;;;;;;;10.90;7.38;;;;;;;-0.51;78.21;98249.00;4964134;28;20047;-62
2023/01/29 12:13:09;;;;;;;12.30;7.00;;;;;;;-0.34;77.40;98239.25;4964358;28;20038;-62
2023/01/29 12:15:46;;;;;;;9.30;6.45;;;;;;;0.00;76.24;98240.22;4962662;28;20046;-64
2023/01/29 12:18:34;;;;;;;12.45;7.13;;;;;;;-0.29;78.50;98228.94;4962067;28;20090;-64
2023/01/29 12:21:03;;;;;;;11.98;6.47;;;;;;;-0.19;76.78;98220.84;4957496;28;20133;-63
2023/01/29 12:23:48;;;;;;;11.75;7.55;;;;;;;-0.32;78.92;98215.16;4960821;28;20043;-62
2023/01/29 12:26:24;;;;;;;12.82;7.45;;;;;;;-0.16;78.17;98204.56;4957291;28;20514;-60